createdAt,value
2023-03-02T00:02:09.296Z,101137.19
2023-03-02T00:04:41.105Z,101132.63
2023-03-02T00:07:12.326Z,101126.00
2023-03-02T00:09:43.240Z,101128.47
2023-03-02T00:12:12.717Z,101134.91
2023-03-02T00:14:43.582Z,101126.03
2023-03-02T00:17:15.420Z,101135.25
2023-03-02T00:19:45.086Z,101131.75
2023-03-02T00:22:14.279Z,101122.56
2023-03-02T00:24:43.457Z,101127.63
2023-03-02T00:27:12.648Z,101129.66
2023-03-02T00:29:44.010Z,101123.31
2023-03-02T00:32:18.216Z,101129.66
2023-03-02T00:34:47.137Z,101125.44
2023-03-02T00:37:16.455Z,101121.28
2023-03-02T00:39:46.100Z,101122.91
2023-03-02T00:42:15.319Z,101128.47
2023-03-02T00:44:45.882Z,101121.38
2023-03-02T00:47:15.962Z,101128.13
2023-03-02T00:49:48.973Z,101126.94
2023-03-02T00:52:18.283Z,101119.19
2023-03-02T00:54:50.157Z,101122.38
2023-03-02T00:57:19.533Z,101122.72
2023-03-02T00:59:50.368Z,101119.84
2023-03-02T01:02:44.209Z,101122.91
2023-03-02T01:05:17.486Z,101124.06
2023-03-02T01:07:46.568Z,101110.78
2023-03-02T01:10:16.427Z,101110.47
2023-03-02T01:12:45.712Z,101118.59
2023-03-02T01:15:16.542Z,101110.97
2023-03-02T01:17:46.879Z,101111.72
2023-03-02T01:20:16.416Z,101101.41
2023-03-02T01:22:45.607Z,101092.97
2023-03-02T01:25:15.132Z,101094.56
2023-03-02T01:27:44.436Z,101091.28
2023-03-02T01:30:15.932Z,101089.22
2023-03-02T01:32:46.030Z,101089.75
2023-03-02T01:35:15.657Z,101098.63
2023-03-02T01:37:44.476Z,101093.88
2023-03-02T01:40:16.061Z,101081.19
2023-03-02T01:42:51.965Z,101078.56
2023-03-02T01:45:53.544Z,101079.44
2023-03-02T01:48:42.315Z,101075.19
2023-03-02T01:51:14.996Z,101075.97
2023-03-02T01:53:47.990Z,101075.78
2023-03-02T01:56:19.130Z,101075.97
2023-03-02T01:58:51.300Z,101088.22
2023-03-02T02:01:22.419Z,101077.91
2023-03-02T02:03:52.449Z,101074.81
2023-03-02T02:06:25.641Z,101086.81
2023-03-02T02:08:56.418Z,101085.69
2023-03-02T02:11:25.732Z,101075.44
2023-03-02T02:13:57.268Z,101079.59
2023-03-02T02:16:28.409Z,101088.47
2023-03-02T02:18:57.569Z,101086.31
2023-03-02T02:21:27.524Z,101087.16
2023-03-02T02:24:04.590Z,101089.06
2023-03-02T02:26:38.938Z,101083.75
2023-03-02T02:29:12.518Z,101084.91
2023-03-02T02:31:46.163Z,101087.00
2023-03-02T02:34:23.046Z,101085.31
2023-03-02T02:36:56.440Z,101083.34
2023-03-02T02:39:30.340Z,101077.91
2023-03-02T02:42:03.426Z,101081.41
2023-03-02T02:44:32.967Z,101072.75
2023-03-02T02:47:02.486Z,101074.09
2023-03-02T02:49:34.420Z,101066.66
2023-03-02T02:52:04.962Z,101058.31
2023-03-02T02:54:35.441Z,101068.44
2023-03-02T02:57:06.684Z,101066.09
2023-03-02T02:59:40.002Z,101060.53
2023-03-02T03:02:13.136Z,101066.00
2023-03-02T03:04:42.090Z,101067.97
2023-03-02T03:07:12.531Z,101064.47
2023-03-02T03:09:41.964Z,101064.22
2023-03-02T03:12:17.110Z,101065.66
2023-03-02T03:14:46.418Z,101061.34
2023-03-02T03:17:15.684Z,101063.13
2023-03-02T03:19:51.675Z,101057.69
2023-03-02T03:22:21.264Z,101055.59
2023-03-02T03:24:52.229Z,101056.56
2023-03-02T03:27:23.223Z,101052.38
2023-03-02T03:29:52.889Z,101057.22
2023-03-02T03:32:23.154Z,101045.59
2023-03-02T03:34:55.593Z,101044.94
2023-03-02T03:37:34.764Z,101042.84
2023-03-02T03:40:05.879Z,101037.88
2023-03-02T03:42:37.876Z,101038.53
2023-03-02T03:45:08.693Z,101041.06
2023-03-02T03:47:38.981Z,101042.75
2023-03-02T03:50:11.281Z,101055.53
2023-03-02T03:52:41.151Z,101045.13
2023-03-02T03:55:19.401Z,101052.75
2023-03-02T03:57:52.020Z,101049.44
2023-03-02T04:00:22.085Z,101049.75
2023-03-02T04:02:57.612Z,101042.81
2023-03-02T04:05:30.694Z,101045.69
2023-03-02T04:08:02.602Z,101042.53
2023-03-02T04:10:32.849Z,101038.00
2023-03-02T04:13:04.657Z,101039.94
2023-03-02T04:15:34.104Z,101036.94
2023-03-02T04:18:06.434Z,101032.31
2023-03-02T04:20:37.267Z,101031.63
2023-03-02T04:23:07.127Z,101035.84
2023-03-02T04:25:36.323Z,101042.38
2023-03-02T04:28:12.226Z,101043.53
2023-03-02T04:30:42.972Z,101050.38
2023-03-02T04:33:12.318Z,101048.16
2023-03-02T04:35:41.902Z,101048.78
2023-03-02T04:38:11.082Z,101049.66
2023-03-02T04:40:39.831Z,101039.94
2023-03-02T04:43:09.020Z,101040.38
2023-03-02T04:45:39.989Z,101036.47
2023-03-02T04:48:09.165Z,101039.00
2023-03-02T04:50:38.579Z,101039.53
2023-03-02T04:53:07.651Z,101037.53
2023-03-02T04:55:36.432Z,101033.97
2023-03-02T04:58:05.551Z,101038.69
2023-03-02T05:00:35.424Z,101041.63
2023-03-02T05:03:06.709Z,101045.63
2023-03-02T05:05:35.926Z,101054.78
2023-03-02T05:08:05.357Z,101044.47
2023-03-02T05:10:34.085Z,101051.78
2023-03-02T05:13:05.283Z,101056.16
2023-03-02T05:15:36.428Z,101057.00
2023-03-02T05:18:09.266Z,101060.38
2023-03-02T05:20:38.846Z,101057.03
2023-03-02T05:23:10.395Z,101053.66
2023-03-02T05:25:40.019Z,101057.78
2023-03-02T05:28:10.211Z,101059.47
2023-03-02T05:30:39.437Z,101056.53
2023-03-02T05:33:10.098Z,101064.22
2023-03-02T05:35:39.646Z,101065.88
2023-03-02T05:38:08.735Z,101072.97
2023-03-02T05:40:37.788Z,101070.03
2023-03-02T05:43:07.449Z,101069.03
2023-03-02T05:45:39.203Z,101070.97
2023-03-02T05:48:11.732Z,101072.34
2023-03-02T05:50:40.894Z,101074.44
2023-03-02T05:53:10.108Z,101077.25
2023-03-02T05:55:38.892Z,101064.66
2023-03-02T05:58:09.248Z,101078.69
2023-03-02T06:00:38.498Z,101077.09
2023-03-02T06:03:08.076Z,101080.75
2023-03-02T06:05:38.925Z,101090.13
2023-03-02T06:08:08.379Z,101081.34
2023-03-02T06:10:37.030Z,101089.28
2023-03-02T06:13:06.250Z,101087.56
2023-03-02T06:15:35.673Z,101099.56
2023-03-02T06:18:04.959Z,101095.91
2023-03-02T06:20:34.091Z,101099.31
2023-03-02T06:23:04.893Z,101105.50
2023-03-02T06:25:33.742Z,101111.19
2023-03-02T06:28:02.836Z,101111.94
2023-03-02T06:30:32.309Z,101116.47
2023-03-02T06:33:01.859Z,101117.97
2023-03-02T06:35:31.159Z,101121.66
2023-03-02T06:38:00.429Z,101120.16
2023-03-02T06:40:31.555Z,101120.13
2023-03-02T06:43:03.860Z,101124.16
2023-03-02T06:45:34.997Z,101128.97
2023-03-02T06:48:07.214Z,101123.16
2023-03-02T06:50:36.900Z,101118.56
2023-03-02T06:53:06.421Z,101116.81
2023-03-02T06:55:37.079Z,101117.09
2023-03-02T06:58:06.348Z,101122.69
2023-03-02T07:00:35.687Z,101116.75
2023-03-02T07:03:04.923Z,101117.97
2023-03-02T07:05:34.283Z,101122.28
2023-03-02T07:08:03.817Z,101121.66
2023-03-02T07:10:33.398Z,101121.25
2023-03-02T07:13:04.348Z,101117.38
2023-03-02T07:15:33.638Z,101120.41
2023-03-02T07:18:02.754Z,101121.34
2023-03-02T07:20:32.194Z,101111.69
2023-03-02T07:23:01.690Z,101113.25
2023-03-02T07:25:30.794Z,101103.66
2023-03-02T07:28:00.701Z,101101.91
2023-03-02T07:30:31.530Z,101097.25
2023-03-02T07:33:00.925Z,101106.44
2023-03-02T07:35:30.254Z,101108.41
2023-03-02T07:37:59.532Z,101108.38
2023-03-02T07:40:28.887Z,101110.72
2023-03-02T07:42:58.354Z,101109.28
2023-03-02T07:45:27.776Z,101104.19
2023-03-02T07:47:58.556Z,101108.31
2023-03-02T07:50:27.797Z,101105.28
2023-03-02T07:52:58.548Z,101110.53
2023-03-02T07:55:29.009Z,101114.56
2023-03-02T07:57:58.469Z,101111.19
2023-03-02T08:00:28.222Z,101103.16
2023-03-02T08:02:58.851Z,101101.97
2023-03-02T08:05:28.141Z,101106.50
2023-03-02T08:07:57.894Z,101099.19
2023-03-02T08:10:27.142Z,101103.75
2023-03-02T08:12:57.646Z,101089.94
2023-03-02T08:15:26.791Z,101086.31
2023-03-02T08:17:56.058Z,101084.81
2023-03-02T08:20:26.851Z,101094.88
2023-03-02T08:22:55.631Z,101090.00
2023-03-02T08:25:24.765Z,101084.56
2023-03-02T08:27:53.921Z,101082.72
2023-03-02T08:30:23.111Z,101081.28
2023-03-02T08:32:52.277Z,101080.09
2023-03-02T08:35:22.332Z,101082.66
2023-03-02T08:37:52.591Z,101085.56
2023-03-02T08:40:21.796Z,101089.44
2023-03-02T08:42:57.031Z,101093.31
2023-03-02T08:45:26.327Z,101085.63
2023-03-02T08:47:55.806Z,101081.94
2023-03-02T08:50:24.989Z,101083.84
2023-03-02T08:52:55.205Z,101083.44
2023-03-02T08:55:24.485Z,101083.66
2023-03-02T08:57:56.893Z,101073.22
2023-03-02T09:00:26.223Z,101085.25
2023-03-02T09:02:55.355Z,101084.19
2023-03-02T09:05:24.782Z,101091.53
2023-03-02T09:07:55.224Z,101085.91
2023-03-02T09:10:24.349Z,101084.50
2023-03-02T09:12:53.396Z,101085.84
2023-03-02T09:15:22.900Z,101087.31
2023-03-02T09:17:52.086Z,101088.22
2023-03-02T09:20:21.700Z,101087.53
2023-03-02T09:22:51.002Z,101079.47
2023-03-02T09:25:21.991Z,101082.00
2023-03-02T09:27:51.281Z,101079.59
2023-03-02T09:30:20.459Z,101080.06
2023-03-02T09:32:50.349Z,101082.81
2023-03-02T09:35:19.724Z,101079.31
2023-03-02T09:37:48.554Z,101087.38
2023-03-02T09:40:22.181Z,101087.25
2023-03-02T09:43:08.133Z,101090.84
2023-03-02T09:46:00.364Z,101078.84
2023-03-02T09:48:38.912Z,101079.56
2023-03-02T09:51:22.242Z,101080.16
2023-03-02T09:53:55.128Z,101081.63
2023-03-02T09:56:26.071Z,101080.25
2023-03-02T09:59:00.417Z,101073.56
2023-03-02T10:01:35.937Z,101078.06
2023-03-02T10:04:12.939Z,101069.53
2023-03-02T10:06:42.217Z,101066.28
2023-03-02T10:09:12.201Z,101066.38
2023-03-02T10:11:51.893Z,101063.97
2023-03-02T10:14:26.083Z,101063.66
2023-03-02T10:17:04.368Z,101059.44
2023-03-02T10:19:41.817Z,101053.72
2023-03-02T10:22:18.294Z,101049.78
2023-03-02T10:24:52.809Z,101046.50
2023-03-02T10:27:26.911Z,101044.81
2023-03-02T10:30:00.781Z,101047.00
2023-03-02T10:32:33.870Z,101043.97
2023-03-02T10:35:07.569Z,101040.50
2023-03-02T10:37:36.472Z,101038.22
2023-03-02T10:40:06.038Z,101042.47
2023-03-02T10:42:40.463Z,101041.69
2023-03-02T10:45:22.779Z,101042.66
2023-03-02T10:48:01.586Z,101041.69
2023-03-02T10:50:31.905Z,101032.69
2023-03-02T10:53:04.117Z,101030.28
2023-03-02T10:55:34.974Z,101034.25
2023-03-02T10:58:07.901Z,101024.88
2023-03-02T11:00:37.432Z,101019.72
2023-03-02T11:03:19.453Z,101029.16
2023-03-02T11:05:48.619Z,101018.94
2023-03-02T11:08:19.737Z,101024.63
2023-03-02T11:10:57.054Z,101014.75
2023-03-02T11:13:33.572Z,101022.16
2023-03-02T11:16:03.917Z,101017.25
2023-03-02T11:18:36.569Z,101019.22
2023-03-02T11:21:09.964Z,101008.38
2023-03-02T11:23:54.024Z,101003.03
2023-03-02T11:26:25.544Z,101003.25
2023-03-02T11:29:00.964Z,101003.66
2023-03-02T11:31:35.567Z,101001.91
2023-03-02T11:34:22.610Z,100998.31
2023-03-02T11:37:03.758Z,100997.28
2023-03-02T11:39:46.396Z,100995.16
2023-03-02T11:42:22.320Z,100998.44
2023-03-02T11:44:53.058Z,101005.25
2023-03-02T11:47:22.795Z,101003.94
2023-03-02T11:49:55.944Z,100998.38
2023-03-02T11:52:27.883Z,100998.63
2023-03-02T11:55:01.091Z,101000.75
2023-03-02T11:57:32.825Z,100994.94
2023-03-02T12:00:05.326Z,100998.56
2023-03-02T12:02:41.591Z,100993.66
2023-03-02T12:05:25.534Z,100998.28
2023-03-02T12:08:01.738Z,100980.59
2023-03-02T12:10:36.530Z,100986.41
2023-03-02T12:13:16.180Z,100985.16
2023-03-02T12:15:47.685Z,100983.06
2023-03-02T12:18:46.320Z,100979.69
2023-03-02T12:21:19.547Z,100976.34
2023-03-02T12:24:04.990Z,100984.66
2023-03-02T12:26:38.408Z,100982.63
2023-03-02T12:29:24.101Z,100982.59
2023-03-02T12:31:56.496Z,100973.81
2023-03-02T12:34:37.174Z,100975.75
2023-03-02T12:37:13.579Z,100971.53
2023-03-02T12:40:02.966Z,100968.41
2023-03-02T12:43:01.247Z,100964.00
2023-03-02T12:45:39.779Z,100968.00
2023-03-02T12:48:25.025Z,100962.78
2023-03-02T12:50:57.602Z,100963.94
2023-03-02T12:53:26.858Z,100954.91
2023-03-02T12:55:56.708Z,100951.03
2023-03-02T12:58:28.111Z,100948.91
2023-03-02T13:00:59.563Z,100946.72
2023-03-02T13:03:31.943Z,100939.91
2023-03-02T13:06:05.225Z,100946.94
2023-03-02T13:08:34.766Z,100939.50
2023-03-02T13:11:04.386Z,100936.53
2023-03-02T13:13:37.936Z,100938.75
2023-03-02T13:16:08.658Z,100937.28
2023-03-02T13:18:40.695Z,100940.44
2023-03-02T13:21:12.823Z,100938.22
2023-03-02T13:23:47.516Z,100935.72
2023-03-02T13:26:26.968Z,100928.69
2023-03-02T13:29:07.279Z,100929.19
2023-03-02T13:31:36.859Z,100924.81
2023-03-02T13:34:07.614Z,100920.13
2023-03-02T13:36:39.329Z,100921.59
2023-03-02T13:39:16.774Z,100920.44
2023-03-02T13:41:54.395Z,100922.63
2023-03-02T13:44:28.205Z,100920.75
2023-03-02T13:46:57.293Z,100918.50
2023-03-02T13:49:32.857Z,100910.78
2023-03-02T13:52:07.750Z,100914.53
2023-03-02T13:54:38.599Z,100909.00
2023-03-02T13:57:08.117Z,100905.88
2023-03-02T13:59:37.723Z,100901.03
2023-03-02T14:02:20.867Z,100898.41
2023-03-02T14:04:51.335Z,100890.75
2023-03-02T14:07:20.941Z,100884.63
2023-03-02T14:09:50.369Z,100881.69
2023-03-02T14:12:24.741Z,100875.47
2023-03-02T14:14:55.011Z,100879.72
2023-03-02T14:17:25.866Z,100871.56
2023-03-02T14:19:55.827Z,100865.50
2023-03-02T14:22:27.397Z,100871.03
2023-03-02T14:24:56.658Z,100862.91
2023-03-02T14:27:28.719Z,100856.63
2023-03-02T14:29:57.840Z,100855.59
2023-03-02T14:32:27.002Z,100848.50
2023-03-02T14:34:57.207Z,100855.97
2023-03-02T14:37:28.778Z,100854.03
2023-03-02T14:39:58.354Z,100843.72
2023-03-02T14:42:27.406Z,100853.56
2023-03-02T14:44:56.610Z,100852.47
2023-03-02T14:47:25.678Z,100847.44
2023-03-02T14:49:54.760Z,100842.53
2023-03-02T14:52:29.471Z,100844.28
2023-03-02T14:55:00.832Z,100843.03
2023-03-02T14:57:31.246Z,100850.44
2023-03-02T15:00:00.663Z,100842.66
2023-03-02T15:02:30.021Z,100843.72
2023-03-02T15:04:59.280Z,100841.28
2023-03-02T15:07:30.373Z,100832.22
2023-03-02T15:09:59.670Z,100825.25
2023-03-02T15:12:28.945Z,100832.88
2023-03-02T15:14:58.230Z,100833.28
2023-03-02T15:17:27.364Z,100836.03
2023-03-02T15:19:56.191Z,100829.91
2023-03-02T15:22:25.390Z,100832.31
2023-03-02T15:24:56.123Z,100818.28
2023-03-02T15:27:25.361Z,100822.13
2023-03-02T15:29:56.673Z,100815.66
2023-03-02T15:32:26.746Z,100821.41
2023-03-02T15:34:55.576Z,100819.84
2023-03-02T15:37:24.849Z,100815.38
2023-03-02T15:39:58.544Z,100820.94
2023-03-02T15:42:27.728Z,100812.88
2023-03-02T15:44:56.861Z,100814.19
2023-03-02T15:47:26.141Z,100811.69
2023-03-02T15:49:55.562Z,100815.59
2023-03-02T15:52:24.692Z,100810.09
2023-03-02T15:54:53.802Z,100817.63
2023-03-02T15:57:24.445Z,100812.41
2023-03-02T15:59:53.626Z,100815.84
2023-03-02T16:02:22.865Z,100809.75
2023-03-02T16:04:51.584Z,100813.13
2023-03-02T16:07:20.559Z,100814.63
2023-03-02T16:09:49.752Z,100800.81
2023-03-02T16:12:20.543Z,100806.88
2023-03-02T16:14:51.182Z,100810.72
2023-03-02T16:17:20.636Z,100811.03
2023-03-02T16:19:49.309Z,100811.44
2023-03-02T16:22:18.409Z,100807.69
2023-03-02T16:24:50.001Z,100808.56
2023-03-02T16:27:19.165Z,100810.16
2023-03-02T16:29:48.378Z,100806.47
2023-03-02T16:32:18.960Z,100810.44
2023-03-02T16:34:47.337Z,100812.34
2023-03-02T16:37:16.494Z,100807.09
2023-03-02T16:39:45.580Z,100812.25
2023-03-02T16:42:14.803Z,100813.06
2023-03-02T16:44:46.025Z,100812.53
2023-03-02T16:47:15.143Z,100807.69
2023-03-02T16:49:45.289Z,100806.75
2023-03-02T16:52:14.500Z,100813.78
2023-03-02T16:54:43.731Z,100810.41
2023-03-02T16:57:12.916Z,100809.34
2023-03-02T16:59:43.072Z,100812.22
2023-03-02T17:02:13.341Z,100799.38
2023-03-02T17:04:44.813Z,100808.59
2023-03-02T17:07:14.009Z,100810.28
2023-03-02T17:09:43.204Z,100815.66
2023-03-02T17:12:12.504Z,100808.81
2023-03-02T17:14:41.640Z,100803.94
2023-03-02T17:17:10.805Z,100801.00
2023-03-02T17:19:39.553Z,100811.41
2023-03-02T17:22:10.167Z,100795.59
2023-03-02T17:24:39.323Z,100803.31
2023-03-02T17:27:19.178Z,100810.88
2023-03-02T17:29:53.365Z,100796.94
2023-03-02T17:32:23.000Z,100798.59
2023-03-02T17:34:51.816Z,100798.88
2023-03-02T17:37:22.608Z,100799.59
2023-03-02T17:39:51.907Z,100801.91
2023-03-02T17:42:21.112Z,100793.28
2023-03-02T17:44:50.199Z,100791.59
2023-03-02T17:47:19.410Z,100796.25
2023-03-02T17:49:49.057Z,100792.09
2023-03-02T17:52:19.329Z,100792.88
2023-03-02T17:54:50.304Z,100792.41
2023-03-02T17:57:22.766Z,100796.16
2023-03-02T17:59:52.116Z,100793.09
2023-03-02T18:02:21.230Z,100789.91
2023-03-02T18:04:50.021Z,100780.91
2023-03-02T18:07:19.226Z,100793.41
2023-03-02T18:09:49.925Z,100793.28
2023-03-02T18:12:19.191Z,100786.81
2023-03-02T18:14:48.319Z,100784.28
2023-03-02T18:17:20.112Z,100788.41
2023-03-02T18:19:49.208Z,100782.16
2023-03-02T18:22:18.251Z,100793.84
2023-03-02T18:24:47.668Z,100779.53
2023-03-02T18:27:19.480Z,100789.72
2023-03-02T18:29:48.652Z,100789.47
2023-03-02T18:32:17.741Z,100790.22
2023-03-02T18:34:46.741Z,100790.88
2023-03-02T18:37:15.950Z,100796.66
2023-03-02T18:39:45.342Z,100791.44
2023-03-02T18:42:14.523Z,100784.13
2023-03-02T18:44:45.152Z,100792.00
2023-03-02T18:47:18.018Z,100788.06
2023-03-02T18:49:47.242Z,100790.00
2023-03-02T18:52:16.728Z,100789.38
2023-03-02T18:54:46.424Z,100781.81
2023-03-02T18:57:15.815Z,100786.19
2023-03-02T18:59:46.423Z,100784.88
2023-03-02T19:02:15.869Z,100795.09
2023-03-02T19:04:44.693Z,100783.34
2023-03-02T19:07:13.827Z,100783.75
2023-03-02T19:09:42.963Z,100784.66
2023-03-02T19:12:12.286Z,100778.88
2023-03-02T19:14:42.863Z,100778.53
2023-03-02T19:17:13.858Z,100780.75
2023-03-02T19:19:43.753Z,100775.69
2023-03-02T19:22:13.348Z,100772.41
2023-03-02T19:24:44.330Z,100772.59
2023-03-02T19:27:13.673Z,100767.56
2023-03-02T19:29:42.911Z,100771.59
2023-03-02T19:32:15.110Z,100771.94
2023-03-02T19:34:44.547Z,100770.84
2023-03-02T19:37:13.647Z,100774.56
2023-03-02T19:39:42.917Z,100776.63
2023-03-02T19:42:12.203Z,100779.59
2023-03-02T19:44:41.245Z,100775.75
2023-03-02T19:47:10.291Z,100782.13
2023-03-02T19:49:40.422Z,100775.50
2023-03-02T19:52:09.620Z,100774.59
2023-03-02T19:54:41.172Z,100784.44
2023-03-02T19:57:13.012Z,100781.97
2023-03-02T19:59:44.956Z,100776.47
2023-03-02T20:02:17.265Z,100777.50
2023-03-02T20:04:51.053Z,100783.38
2023-03-02T20:07:20.517Z,100779.56
2023-03-02T20:09:49.568Z,100775.44
2023-03-02T20:12:19.932Z,100778.34
2023-03-02T20:14:51.774Z,100781.59
2023-03-02T20:17:21.194Z,100781.72
2023-03-02T20:19:52.685Z,100779.72
2023-03-02T20:22:21.911Z,100783.56
2023-03-02T20:24:51.044Z,100777.50
2023-03-02T20:27:21.298Z,100777.13
2023-03-02T20:29:50.374Z,100785.19
2023-03-02T20:32:19.601Z,100777.72
2023-03-02T20:34:48.406Z,100776.59
2023-03-02T20:37:19.783Z,100771.00
2023-03-02T20:39:49.715Z,100770.69
2023-03-02T20:42:18.828Z,100764.91
2023-03-02T20:44:48.173Z,100755.91
2023-03-02T20:47:18.112Z,100755.19
2023-03-02T20:49:46.937Z,100760.22
2023-03-02T20:52:16.295Z,100748.47
2023-03-02T20:54:46.831Z,100748.78
2023-03-02T20:57:17.833Z,100743.53
2023-03-02T20:59:48.194Z,100748.59
2023-03-02T21:02:19.582Z,100750.28
2023-03-02T21:04:48.879Z,100746.44
2023-03-02T21:07:18.091Z,100747.91
2023-03-02T21:09:48.743Z,100741.56
2023-03-02T21:12:17.922Z,100738.19
2023-03-02T21:14:47.112Z,100743.19
2023-03-02T21:17:16.633Z,100744.59
2023-03-02T21:19:45.364Z,100740.44
2023-03-02T21:22:14.503Z,100737.28
2023-03-02T21:24:43.622Z,100736.25
2023-03-02T21:27:14.283Z,100733.03
2023-03-02T21:29:43.357Z,100723.09
2023-03-02T21:32:12.604Z,100719.47
2023-03-02T21:34:41.363Z,100712.66
2023-03-02T21:37:10.444Z,100713.28
2023-03-02T21:39:39.519Z,100707.34
2023-03-02T21:42:08.699Z,100709.50
2023-03-02T21:44:39.228Z,100711.03
2023-03-02T21:47:08.307Z,100705.47
2023-03-02T21:49:37.126Z,100708.50
2023-03-02T21:52:07.915Z,100711.97
2023-03-02T21:54:37.073Z,100707.38
2023-03-02T21:57:08.368Z,100709.84
2023-03-02T21:59:38.860Z,100698.75
2023-03-02T22:02:08.088Z,100697.09
2023-03-02T22:04:36.818Z,100689.25
2023-03-02T22:07:05.957Z,100696.06
2023-03-02T22:09:35.069Z,100697.03
2023-03-02T22:12:09.060Z,100697.69
2023-03-02T22:14:39.716Z,100699.44
2023-03-02T22:17:16.608Z,100695.47
2023-03-02T22:19:46.083Z,100693.56
2023-03-02T22:22:19.005Z,100689.34
2023-03-02T22:24:50.258Z,100694.41
2023-03-02T22:27:24.331Z,100695.25
2023-03-02T22:29:57.811Z,100694.66
2023-03-02T22:32:28.965Z,100697.97
2023-03-02T22:34:59.651Z,100691.53
2023-03-02T22:37:30.320Z,100686.81
2023-03-02T22:40:03.202Z,100690.47
2023-03-02T22:42:34.749Z,100692.00
2023-03-02T22:45:14.892Z,100687.19
2023-03-02T22:47:44.501Z,100683.28
2023-03-02T22:50:22.374Z,100679.38
2023-03-02T22:52:51.144Z,100689.78
2023-03-02T22:55:39.981Z,100682.75
2023-03-02T22:58:42.705Z,100684.94
2023-03-02T23:01:21.659Z,100680.88
2023-03-02T23:03:52.721Z,100682.59
2023-03-02T23:06:29.955Z,100675.28
2023-03-02T23:09:01.261Z,100679.81
2023-03-02T23:11:31.328Z,100672.53
2023-03-02T23:14:00.006Z,100664.66
2023-03-02T23:16:35.782Z,100666.63
2023-03-02T23:19:05.850Z,100654.34
2023-03-02T23:21:39.178Z,100654.72
2023-03-02T23:24:09.355Z,100651.81
2023-03-02T23:26:38.151Z,100648.66
2023-03-02T23:29:07.600Z,100647.19
2023-03-02T23:31:38.309Z,100643.59
2023-03-02T23:34:07.518Z,100654.66
2023-03-02T23:36:37.696Z,100644.44
2023-03-02T23:39:06.942Z,100652.84
2023-03-02T23:41:36.649Z,100644.94
2023-03-02T23:44:06.210Z,100648.19
2023-03-02T23:46:35.352Z,100646.09
2023-03-02T23:49:05.862Z,100638.72
2023-03-02T23:51:35.245Z,100642.81
2023-03-02T23:54:04.909Z,100642.28
2023-03-02T23:56:34.137Z,100639.88
2023-03-02T23:59:03.473Z,100641.22
